createdAt,value
2018-03-14T00:01:30.755Z,5.40
2018-03-14T00:03:59.050Z,5.50
2018-03-14T00:06:28.134Z,5.50
2018-03-14T00:08:56.779Z,5.40
2018-03-14T00:11:25.089Z,5.40
2018-03-14T00:13:53.395Z,5.50
2018-03-14T00:16:21.725Z,5.50
2018-03-14T00:18:50.790Z,5.60
2018-03-14T00:21:19.171Z,5.60
2018-03-14T00:23:47.466Z,5.50
2018-03-14T00:26:15.798Z,5.50
2018-03-14T00:28:44.096Z,5.70
2018-03-14T00:31:12.418Z,5.60
2018-03-14T00:33:42.694Z,5.70
2018-03-14T00:36:11.010Z,5.70
2018-03-14T00:38:40.062Z,5.60
2018-03-14T00:41:08.390Z,5.60
2018-03-14T00:43:36.679Z,5.60
2018-03-14T00:46:05.366Z,5.60
2018-03-14T00:48:33.775Z,5.50
2018-03-14T00:51:02.216Z,5.60
2018-03-14T00:53:30.613Z,5.40
2018-03-14T00:55:59.229Z,5.40
2018-03-14T00:58:27.525Z,5.40
2018-03-14T01:00:55.832Z,5.50
2018-03-14T01:03:24.152Z,5.50
2018-03-14T01:05:52.482Z,5.50
2018-03-14T01:08:21.565Z,5.60
2018-03-14T01:10:49.907Z,5.60
2018-03-14T01:13:18.990Z,5.50
2018-03-14T01:15:48.814Z,5.50
2018-03-14T01:18:17.225Z,5.50
2018-03-14T01:20:45.546Z,5.50
2018-03-14T01:23:15.366Z,5.70
2018-03-14T01:25:43.661Z,5.70
2018-03-14T01:28:11.993Z,5.70
2018-03-14T01:30:41.106Z,5.50
2018-03-14T01:33:09.439Z,5.50
2018-03-14T01:35:38.489Z,5.60
2018-03-14T01:38:06.908Z,5.60
2018-03-14T01:40:35.219Z,5.50
2018-03-14T01:43:03.625Z,5.40
2018-03-14T01:45:32.023Z,5.30
2018-03-14T01:48:00.336Z,5.30
2018-03-14T01:50:28.622Z,5.30
2018-03-14T01:53:09.008Z,5.30
2018-03-14T01:55:37.354Z,5.30
2018-03-14T01:58:06.501Z,5.00
2018-03-14T02:00:35.202Z,5.00
2018-03-14T02:03:03.603Z,5.00
2018-03-14T02:05:32.466Z,5.10
2018-03-14T02:08:00.769Z,5.00
2018-03-14T02:10:29.065Z,4.90
2018-03-14T02:12:57.389Z,4.90
2018-03-14T02:15:25.714Z,5.00
2018-03-14T02:17:54.814Z,5.00
2018-03-14T02:20:23.151Z,5.00
2018-03-14T02:22:51.445Z,5.10
2018-03-14T02:25:19.840Z,5.00
2018-03-14T02:27:48.925Z,5.00
2018-03-14T02:30:17.260Z,5.00
2018-03-14T02:32:45.546Z,5.00
2018-03-14T02:35:15.354Z,4.90
2018-03-14T02:37:43.678Z,4.90
2018-03-14T02:40:11.974Z,5.00
2018-03-14T02:42:40.307Z,5.00
2018-03-14T02:45:09.387Z,5.10
2018-03-14T02:47:37.710Z,5.10
2018-03-14T02:50:06.034Z,5.00
2018-03-14T02:52:34.382Z,5.00
2018-03-14T02:55:03.102Z,4.80
2018-03-14T02:57:31.513Z,4.90
2018-03-14T02:59:59.918Z,5.00
2018-03-14T03:02:28.231Z,5.00
2018-03-14T03:04:56.546Z,5.00
2018-03-14T03:07:24.830Z,4.90
2018-03-14T03:09:53.238Z,4.70
2018-03-14T03:12:21.541Z,4.80
2018-03-14T03:14:49.981Z,4.80
2018-03-14T03:17:19.140Z,5.00
2018-03-14T03:19:47.450Z,4.90
2018-03-14T03:22:15.734Z,5.00
2018-03-14T03:24:44.049Z,5.00
2018-03-14T03:27:12.366Z,5.10
2018-03-14T03:29:40.682Z,5.10
2018-03-14T03:32:08.994Z,5.00
2018-03-14T03:34:37.472Z,4.90
2018-03-14T03:37:05.802Z,4.90
2018-03-14T03:39:34.184Z,4.90
2018-03-14T03:42:02.639Z,4.90
2018-03-14T03:44:31.237Z,4.80
2018-03-14T03:47:00.323Z,4.80
2018-03-14T03:49:28.607Z,4.80
2018-03-14T03:51:57.237Z,4.80
2018-03-14T03:54:25.526Z,4.80
2018-03-14T03:56:53.806Z,4.80
2018-03-14T03:59:22.126Z,4.70
2018-03-14T04:01:50.414Z,4.70
2018-03-14T04:04:19.010Z,4.70
2018-03-14T04:06:47.318Z,4.80
2018-03-14T04:09:15.659Z,4.80
2018-03-14T04:11:44.560Z,4.80
2018-03-14T04:14:15.119Z,4.80
2018-03-14T04:16:44.489Z,4.80
2018-03-14T04:19:14.001Z,4.60
2018-03-14T04:21:44.400Z,4.60
2018-03-14T04:24:12.913Z,4.70
2018-03-14T04:26:41.702Z,4.50
2018-03-14T04:29:11.809Z,4.50
2018-03-14T04:31:42.248Z,4.50
2018-03-14T04:34:13.704Z,4.50
2018-03-14T04:36:43.976Z,4.60
2018-03-14T04:39:14.102Z,4.60
2018-03-14T04:41:44.107Z,4.60
2018-03-14T04:44:13.676Z,4.70
2018-03-14T04:46:42.463Z,4.70
2018-03-14T04:49:12.851Z,4.60
2018-03-14T04:51:42.681Z,4.60
2018-03-14T04:54:13.607Z,4.50
2018-03-14T04:56:43.031Z,4.60
2018-03-14T04:59:12.050Z,4.70
2018-03-14T05:01:42.676Z,4.70
2018-03-14T05:04:11.451Z,4.70
2018-03-14T05:06:39.851Z,4.70
2018-03-14T05:09:08.474Z,4.60
2018-03-14T05:11:38.000Z,4.50
2018-03-14T05:14:07.283Z,4.50
2018-03-14T05:16:36.451Z,4.50
2018-03-14T05:19:04.830Z,4.50
2018-03-14T05:21:33.146Z,4.50
2018-03-14T05:24:01.466Z,4.50
2018-03-14T05:26:29.787Z,4.50
2018-03-14T05:28:58.102Z,4.60
2018-03-14T05:31:27.490Z,4.60
2018-03-14T05:33:55.766Z,4.60
2018-03-14T05:36:24.083Z,4.50
2018-03-14T05:38:53.290Z,4.50
2018-03-14T05:41:21.585Z,4.40
2018-03-14T05:43:49.867Z,4.40
2018-03-14T05:46:18.953Z,4.40
2018-03-14T05:48:47.238Z,4.50
2018-03-14T05:51:15.532Z,4.40
2018-03-14T05:53:43.858Z,4.50
2018-03-14T05:56:12.143Z,4.40
2018-03-14T05:58:40.553Z,4.50
2018-03-14T06:01:08.839Z,4.50
2018-03-14T06:03:37.223Z,4.50
2018-03-14T06:06:05.584Z,4.60
2018-03-14T06:08:34.996Z,4.60
2018-03-14T06:11:03.354Z,4.60
2018-03-14T06:13:31.692Z,4.60
2018-03-14T06:16:00.023Z,4.60
2018-03-14T06:18:28.414Z,4.70
2018-03-14T06:20:57.014Z,4.70
2018-03-14T06:23:25.298Z,4.70
2018-03-14T06:25:53.588Z,4.60
2018-03-14T06:28:21.927Z,4.60
2018-03-14T06:30:50.987Z,4.70
2018-03-14T06:33:19.335Z,4.70
2018-03-14T06:35:47.628Z,4.70
2018-03-14T06:38:15.914Z,4.70
2018-03-14T06:40:44.238Z,4.70
2018-03-14T06:43:12.558Z,4.60
2018-03-14T06:45:40.851Z,4.60
2018-03-14T06:48:09.175Z,4.80
2018-03-14T06:50:37.487Z,4.70
2018-03-14T06:53:06.755Z,4.80
2018-03-14T06:55:35.175Z,4.70
2018-03-14T06:58:03.462Z,4.90
2018-03-14T07:00:43.770Z,4.90
2018-03-14T07:03:23.842Z,4.80
2018-03-14T07:06:04.019Z,4.90
2018-03-14T07:08:32.314Z,4.90
2018-03-14T07:11:00.634Z,4.90
2018-03-14T07:13:28.929Z,5.00
2018-03-14T07:15:57.438Z,5.10
2018-03-14T07:18:25.728Z,5.20
2018-03-14T07:20:54.019Z,5.10
2018-03-14T07:23:23.330Z,5.00
2018-03-14T07:25:51.631Z,5.00
2018-03-14T07:28:19.970Z,4.80
2018-03-14T07:30:48.302Z,4.90
2018-03-14T07:33:16.596Z,5.00
2018-03-14T07:35:44.908Z,5.00
2018-03-14T07:38:13.194Z,4.70
2018-03-14T07:40:41.510Z,4.70
2018-03-14T07:43:09.834Z,4.90
2018-03-14T07:45:38.887Z,5.00
2018-03-14T07:48:07.206Z,5.00
2018-03-14T07:50:35.596Z,4.70
2018-03-14T07:53:03.926Z,4.70
2018-03-14T07:55:33.044Z,4.80
2018-03-14T07:58:01.331Z,4.80
2018-03-14T08:00:29.610Z,4.90
2018-03-14T08:02:57.923Z,4.80
2018-03-14T08:05:26.243Z,4.80
2018-03-14T08:07:54.518Z,4.80
2018-03-14T08:10:22.847Z,4.80
2018-03-14T08:12:51.179Z,4.90
2018-03-14T08:15:20.238Z,4.90
2018-03-14T08:17:48.559Z,4.80
2018-03-14T08:20:16.851Z,4.90
2018-03-14T08:22:45.167Z,5.00
2018-03-14T08:25:13.453Z,4.90
2018-03-14T08:27:41.802Z,4.90
2018-03-14T08:30:10.062Z,5.10
2018-03-14T08:32:38.395Z,4.90
2018-03-14T08:35:06.692Z,4.90
2018-03-14T08:37:35.022Z,5.00
2018-03-14T08:40:04.127Z,5.20
2018-03-14T08:42:32.407Z,5.20
2018-03-14T08:45:00.692Z,5.20
2018-03-14T08:47:29.010Z,5.30
2018-03-14T08:49:58.094Z,5.30
2018-03-14T08:52:26.382Z,5.30
2018-03-14T08:54:54.724Z,5.40
2018-03-14T08:57:23.001Z,5.20
2018-03-14T08:59:51.297Z,5.20
2018-03-14T09:02:19.611Z,5.30
2018-03-14T09:04:47.934Z,5.50
2018-03-14T09:07:16.206Z,5.40
2018-03-14T09:09:44.490Z,5.60
2018-03-14T09:12:13.575Z,5.60
2018-03-14T09:14:41.887Z,5.60
2018-03-14T09:17:10.167Z,5.60
2018-03-14T09:19:38.510Z,5.60
2018-03-14T09:22:07.618Z,5.50
2018-03-14T09:24:35.961Z,5.50
2018-03-14T09:27:04.282Z,5.60
2018-03-14T09:29:32.556Z,5.60
2018-03-14T09:32:00.872Z,5.50
2018-03-14T09:34:29.146Z,5.70
2018-03-14T09:36:58.214Z,5.20
2018-03-14T09:39:26.499Z,5.20
2018-03-14T09:41:54.782Z,5.20
2018-03-14T09:44:23.142Z,5.10
2018-03-14T09:46:51.441Z,5.10
2018-03-14T09:49:20.546Z,5.20
2018-03-14T09:51:49.066Z,5.20
2018-03-14T09:54:17.351Z,5.30
2018-03-14T09:56:45.631Z,5.30
2018-03-14T09:59:13.947Z,5.10
2018-03-14T10:01:42.221Z,5.20
2018-03-14T10:04:10.551Z,5.50
2018-03-14T10:06:38.858Z,5.60
2018-03-14T10:09:07.285Z,6.00
2018-03-14T10:11:35.811Z,6.20
2018-03-14T10:14:04.426Z,6.20
2018-03-14T10:16:33.401Z,6.00
2018-03-14T10:19:02.291Z,5.80
2018-03-14T10:21:31.064Z,5.70
2018-03-14T10:23:59.652Z,5.60
2018-03-14T10:26:28.070Z,5.70
2018-03-14T10:28:57.363Z,5.90
2018-03-14T10:31:25.643Z,5.90
2018-03-14T10:33:53.922Z,6.00
2018-03-14T10:36:22.242Z,5.90
2018-03-14T10:38:50.533Z,5.70
2018-03-14T10:41:18.854Z,5.60
2018-03-14T10:43:47.170Z,5.70
2018-03-14T10:46:16.086Z,5.80
2018-03-14T10:48:44.839Z,6.10
2018-03-14T10:51:14.798Z,6.50
2018-03-14T10:53:43.750Z,6.50
2018-03-14T10:56:12.782Z,6.70
2018-03-14T10:58:42.189Z,6.60
2018-03-14T11:01:12.589Z,6.30
2018-03-14T11:03:44.841Z,6.30
2018-03-14T11:06:13.746Z,6.30
2018-03-14T11:08:43.239Z,6.20
2018-03-14T11:11:13.034Z,6.20
2018-03-14T11:13:43.019Z,6.10
2018-03-14T11:16:12.321Z,6.00
2018-03-14T11:18:41.618Z,5.90
2018-03-14T11:21:11.158Z,5.90
2018-03-14T11:23:40.123Z,5.90
2018-03-14T11:26:08.922Z,5.90
2018-03-14T11:28:38.304Z,5.70
2018-03-14T11:31:09.035Z,5.20
2018-03-14T11:33:38.259Z,5.20
2018-03-14T11:36:07.827Z,5.00
2018-03-14T11:38:39.013Z,5.00
2018-03-14T11:41:10.466Z,5.20
2018-03-14T11:43:39.427Z,5.20
2018-03-14T11:46:08.616Z,5.10
2018-03-14T11:48:38.646Z,5.10
2018-03-14T11:51:09.938Z,4.80
2018-03-14T11:53:39.022Z,4.80
2018-03-14T11:56:08.836Z,4.70
2018-03-14T11:58:39.268Z,4.80
2018-03-14T12:01:08.287Z,4.80
2018-03-14T12:03:38.091Z,4.70
2018-03-14T12:06:09.876Z,4.60
2018-03-14T12:08:39.647Z,4.40
2018-03-14T12:11:10.650Z,4.50
2018-03-14T12:13:40.444Z,4.70
2018-03-14T12:16:10.042Z,4.80
2018-03-14T12:18:40.806Z,4.80
2018-03-14T12:21:10.424Z,4.90
2018-03-14T12:23:40.522Z,5.20
2018-03-14T12:26:09.296Z,5.20
2018-03-14T12:28:39.469Z,5.20
2018-03-14T12:31:08.377Z,5.20
2018-03-14T12:33:39.344Z,5.40
2018-03-14T12:36:08.912Z,5.50
2018-03-14T12:38:39.428Z,5.50
2018-03-14T12:41:08.550Z,5.50
2018-03-14T12:43:37.746Z,5.50
2018-03-14T12:46:07.010Z,5.60
2018-03-14T12:48:36.030Z,5.60
2018-03-14T12:51:05.969Z,5.40
2018-03-14T12:53:35.449Z,5.30
2018-03-14T12:56:04.030Z,5.30
2018-03-14T12:58:33.117Z,5.40
2018-03-14T13:01:01.846Z,5.40
2018-03-14T13:03:30.514Z,5.50
2018-03-14T13:05:58.926Z,5.50
2018-03-14T13:08:27.291Z,5.60
2018-03-14T13:10:55.567Z,5.50
2018-03-14T13:13:24.645Z,5.60
2018-03-14T13:15:52.962Z,5.50
2018-03-14T13:18:21.286Z,5.60
2018-03-14T13:20:50.335Z,5.60
2018-03-14T13:23:18.703Z,5.50
2018-03-14T13:25:47.807Z,5.60
2018-03-14T13:28:16.297Z,5.70
2018-03-14T13:30:45.029Z,5.80
2018-03-14T13:33:14.967Z,5.70
2018-03-14T13:35:43.908Z,5.70
2018-03-14T13:38:12.758Z,5.70
2018-03-14T13:40:42.000Z,5.60
2018-03-14T13:43:11.154Z,5.70
2018-03-14T13:45:40.918Z,6.00
2018-03-14T13:48:10.533Z,5.90
2018-03-14T13:50:39.629Z,5.70
2018-03-14T13:53:10.325Z,5.90
2018-03-14T13:55:39.583Z,6.00
2018-03-14T13:58:08.813Z,6.20
2018-03-14T14:00:38.166Z,6.10
2018-03-14T14:03:08.694Z,6.10
2018-03-14T14:05:38.408Z,6.00
2018-03-14T14:08:07.760Z,6.00
2018-03-14T14:10:36.755Z,5.90
2018-03-14T14:13:06.591Z,5.90
2018-03-14T14:15:37.176Z,5.70
2018-03-14T14:18:06.932Z,5.30
2018-03-14T14:20:36.437Z,5.00
2018-03-14T14:23:05.325Z,4.80
2018-03-14T14:25:35.330Z,4.70
2018-03-14T14:28:04.173Z,4.70
2018-03-14T14:30:33.245Z,4.70
2018-03-14T14:33:02.654Z,4.70
2018-03-14T14:35:31.258Z,4.70
2018-03-14T14:37:59.603Z,4.60
2018-03-14T14:40:28.598Z,4.60
2018-03-14T14:42:57.772Z,4.60
2018-03-14T14:45:26.051Z,4.60
2018-03-14T14:47:55.230Z,4.70
2018-03-14T14:50:23.515Z,4.70
2018-03-14T14:52:51.795Z,4.60
2018-03-14T14:55:20.642Z,4.70
2018-03-14T14:57:48.920Z,4.70
2018-03-14T15:00:17.231Z,4.80
2018-03-14T15:02:45.979Z,4.80
2018-03-14T15:05:14.856Z,4.80
2018-03-14T15:07:44.062Z,4.80
2018-03-14T15:10:13.590Z,4.80
2018-03-14T15:12:43.594Z,4.70
2018-03-14T15:15:12.240Z,4.70
2018-03-14T15:17:41.458Z,4.70
2018-03-14T15:20:10.442Z,4.70
2018-03-14T15:22:41.853Z,4.60
2018-03-14T15:25:12.202Z,4.50
2018-03-14T15:27:42.002Z,4.50
2018-03-14T15:30:11.503Z,4.60
2018-03-14T15:32:41.218Z,4.40
2018-03-14T15:35:11.384Z,4.30
2018-03-14T15:37:41.284Z,4.40
2018-03-14T15:40:10.936Z,4.40
2018-03-14T15:42:40.351Z,4.30
2018-03-14T15:45:09.825Z,4.20
2018-03-14T15:47:40.208Z,4.30
2018-03-14T15:50:09.631Z,4.30
2018-03-14T15:52:39.020Z,4.30
2018-03-14T15:55:08.827Z,4.30
2018-03-14T15:57:39.068Z,4.20
2018-03-14T16:00:08.913Z,4.30
2018-03-14T16:02:38.974Z,4.30
2018-03-14T16:05:08.885Z,4.30
2018-03-14T16:07:38.362Z,4.30
2018-03-14T16:10:11.235Z,4.20
2018-03-14T16:12:42.127Z,4.20
2018-03-14T16:15:11.027Z,4.30
2018-03-14T16:17:40.913Z,4.30
2018-03-14T16:20:11.220Z,4.40
2018-03-14T16:22:42.431Z,4.40
2018-03-14T16:25:12.725Z,4.50
2018-03-14T16:27:42.654Z,4.50
2018-03-14T16:30:11.648Z,4.60
2018-03-14T16:32:40.844Z,4.50
2018-03-14T16:35:10.036Z,4.50
2018-03-14T16:37:39.539Z,4.50
2018-03-14T16:40:08.492Z,4.40
2018-03-14T16:42:37.452Z,4.50
2018-03-14T16:45:07.618Z,4.50
2018-03-14T16:47:37.299Z,4.70
2018-03-14T16:50:06.663Z,4.70
2018-03-14T16:52:36.845Z,4.60
2018-03-14T16:55:06.684Z,4.50
2018-03-14T16:57:36.602Z,4.40
2018-03-14T17:00:07.121Z,4.40
2018-03-14T17:02:37.666Z,4.20
2018-03-14T17:05:07.237Z,4.20
2018-03-14T17:07:36.889Z,4.20
2018-03-14T17:10:06.019Z,4.30
2018-03-14T17:12:35.050Z,4.30
2018-03-14T17:15:03.910Z,4.40
2018-03-14T17:17:33.976Z,4.50
2018-03-14T17:20:02.551Z,4.50
2018-03-14T17:22:31.090Z,4.40
2018-03-14T17:25:00.953Z,4.70
2018-03-14T17:27:30.070Z,4.70
2018-03-14T17:29:58.887Z,4.60
2018-03-14T17:32:27.827Z,4.70
2018-03-14T17:34:57.439Z,4.50
2018-03-14T17:37:26.868Z,4.50
2018-03-14T17:39:56.394Z,4.50
2018-03-14T17:42:25.580Z,4.30
2018-03-14T17:44:54.464Z,4.20
2018-03-14T17:47:22.834Z,4.20
2018-03-14T17:49:51.494Z,4.20
2018-03-14T17:52:19.770Z,4.20
2018-03-14T17:54:48.094Z,4.10
2018-03-14T17:57:16.378Z,4.10
2018-03-14T17:59:44.709Z,4.30
2018-03-14T18:02:13.043Z,4.40
2018-03-14T18:04:42.155Z,4.40
2018-03-14T18:07:11.302Z,4.30
2018-03-14T18:09:39.627Z,4.20
2018-03-14T18:12:07.906Z,4.20
2018-03-14T18:14:36.193Z,4.30
2018-03-14T18:17:05.270Z,4.40
2018-03-14T18:19:33.563Z,4.40
2018-03-14T18:22:01.895Z,4.40
2018-03-14T18:24:30.180Z,4.40
2018-03-14T18:26:58.474Z,4.40
2018-03-14T18:29:26.820Z,4.40
2018-03-14T18:31:55.951Z,4.40
2018-03-14T18:34:24.263Z,4.40
2018-03-14T18:36:52.591Z,4.30
2018-03-14T18:39:20.902Z,4.30
2018-03-14T18:41:49.195Z,4.30
2018-03-14T18:44:17.502Z,4.40
2018-03-14T18:46:45.778Z,4.50
2018-03-14T18:49:14.091Z,4.40
2018-03-14T18:51:42.375Z,4.20
2018-03-14T18:54:10.662Z,4.10
2018-03-14T18:56:38.991Z,4.10
2018-03-14T18:59:07.279Z,4.20
2018-03-14T19:01:35.554Z,4.20
2018-03-14T19:04:04.639Z,4.20
2018-03-14T19:06:32.918Z,4.20
2018-03-14T19:09:01.191Z,4.20
2018-03-14T19:11:29.510Z,4.10
2018-03-14T19:13:57.831Z,4.20
2018-03-14T19:16:26.239Z,4.30
2018-03-14T19:18:54.550Z,4.30
2018-03-14T19:21:22.872Z,4.30
2018-03-14T19:23:51.187Z,4.20
2018-03-14T19:26:20.238Z,4.00
2018-03-14T19:28:48.558Z,4.00
2018-03-14T19:31:16.857Z,4.00
2018-03-14T19:33:45.200Z,4.00
2018-03-14T19:36:13.483Z,4.10
2018-03-14T19:38:41.767Z,4.10
2018-03-14T19:41:10.083Z,4.20
2018-03-14T19:43:38.406Z,4.30
2018-03-14T19:46:06.691Z,4.20
2018-03-14T19:48:35.018Z,4.10
2018-03-14T19:51:05.078Z,4.00
2018-03-14T19:53:33.366Z,4.00
2018-03-14T19:56:02.414Z,4.10
2018-03-14T19:58:30.956Z,4.10
2018-03-14T20:00:59.239Z,4.10
2018-03-14T20:03:27.524Z,4.00
2018-03-14T20:05:56.087Z,4.00
2018-03-14T20:08:24.418Z,3.90
2018-03-14T20:10:52.703Z,3.90
2018-03-14T20:13:21.797Z,3.90
2018-03-14T20:15:50.088Z,3.90
2018-03-14T20:18:18.698Z,3.90
2018-03-14T20:20:46.984Z,3.90
2018-03-14T20:23:15.253Z,3.90
2018-03-14T20:25:43.872Z,3.90
2018-03-14T20:28:12.263Z,3.80
2018-03-14T20:30:41.346Z,3.80
2018-03-14T20:33:09.883Z,3.80
2018-03-14T20:35:38.123Z,3.90
2018-03-14T20:38:06.403Z,3.90
2018-03-14T20:40:34.746Z,3.90
2018-03-14T20:43:03.386Z,3.80
2018-03-14T20:45:31.750Z,3.90
2018-03-14T20:48:00.039Z,4.00
2018-03-14T20:50:30.016Z,3.90
2018-03-14T20:52:58.438Z,3.90
2018-03-14T20:55:27.583Z,3.90
2018-03-14T20:57:56.080Z,3.90
2018-03-14T21:00:25.202Z,3.90
2018-03-14T21:02:53.481Z,3.90
2018-03-14T21:05:22.573Z,3.90
2018-03-14T21:07:50.858Z,3.90
2018-03-14T21:10:19.383Z,3.80
2018-03-14T21:12:47.661Z,3.90
2018-03-14T21:15:15.943Z,3.80
2018-03-14T21:17:44.286Z,3.80
2018-03-14T21:20:12.889Z,3.80
2018-03-14T21:22:41.188Z,3.80
2018-03-14T21:25:09.516Z,3.80
2018-03-14T21:27:37.839Z,3.80
2018-03-14T21:30:07.116Z,3.80
2018-03-14T21:32:35.405Z,3.80
2018-03-14T21:35:03.709Z,3.80
2018-03-14T21:37:32.038Z,3.80
2018-03-14T21:40:00.446Z,3.80
2018-03-14T21:42:28.783Z,3.90
2018-03-14T21:44:57.382Z,3.90
2018-03-14T21:47:26.655Z,3.80
2018-03-14T21:49:56.554Z,3.70
2018-03-14T21:52:25.003Z,3.70
2018-03-14T21:54:53.326Z,3.80
2018-03-14T21:57:21.623Z,3.80
2018-03-14T21:59:50.022Z,3.80
2018-03-14T22:02:18.312Z,3.70
2018-03-14T22:04:46.630Z,3.70
2018-03-14T22:07:14.969Z,3.70
2018-03-14T22:09:44.231Z,3.70
2018-03-14T22:12:12.659Z,3.60
2018-03-14T22:14:40.947Z,3.70
2018-03-14T22:17:10.060Z,3.70
2018-03-14T22:19:38.386Z,3.70
2018-03-14T22:22:07.571Z,3.80
2018-03-14T22:24:35.892Z,3.90
2018-03-14T22:27:04.178Z,3.80
2018-03-14T22:29:32.491Z,3.70
2018-03-14T22:32:00.918Z,3.70
2018-03-14T22:34:29.258Z,3.70
2018-03-14T22:36:58.556Z,3.70
2018-03-14T22:39:26.930Z,3.70
2018-03-14T22:41:56.197Z,3.70
2018-03-14T22:44:24.722Z,3.70
2018-03-14T22:46:53.302Z,3.70
2018-03-14T22:49:22.415Z,3.60
2018-03-14T22:51:50.699Z,3.60
2018-03-14T22:54:19.012Z,3.70
2018-03-14T22:56:47.297Z,3.70
2018-03-14T22:59:15.623Z,3.60
2018-03-14T23:01:44.701Z,3.60
2018-03-14T23:04:13.233Z,3.60
2018-03-14T23:06:42.398Z,3.50
2018-03-14T23:09:11.488Z,3.60
2018-03-14T23:11:39.775Z,3.60
2018-03-14T23:14:08.054Z,3.50
2018-03-14T23:16:36.374Z,3.50
2018-03-14T23:19:04.651Z,3.40
2018-03-14T23:21:32.943Z,3.40
2018-03-14T23:24:02.023Z,3.50
2018-03-14T23:26:30.338Z,3.50
2018-03-14T23:28:58.814Z,3.40
2018-03-14T23:31:27.437Z,3.50
2018-03-14T23:33:56.850Z,3.50
2018-03-14T23:36:26.758Z,3.50
2018-03-14T23:38:55.502Z,3.50
2018-03-14T23:41:23.914Z,3.50
2018-03-14T23:43:52.318Z,3.50
2018-03-14T23:46:21.542Z,3.50
2018-03-14T23:48:49.831Z,3.50
2018-03-14T23:51:18.346Z,3.50
2018-03-14T23:53:46.636Z,3.50
2018-03-14T23:56:14.914Z,3.60
2018-03-14T23:58:43.507Z,3.60
